createdAt,value
2019-02-12T00:00:16.551Z,2.30
2019-02-12T00:02:45.157Z,4.90
2019-02-12T00:05:13.713Z,4.07
2019-02-12T00:07:42.202Z,3.57
2019-02-12T00:10:10.809Z,2.97
2019-02-12T00:12:39.288Z,3.00
2019-02-12T00:15:08.048Z,2.77
2019-02-12T00:17:36.621Z,2.53
2019-02-12T00:20:06.844Z,4.90
2019-02-12T00:22:35.329Z,6.67
2019-02-12T00:25:05.455Z,2.53
2019-02-12T00:27:34.028Z,3.10
2019-02-12T00:30:02.617Z,2.20
2019-02-12T00:32:31.090Z,3.17
2019-02-12T00:34:59.573Z,3.20
2019-02-12T00:37:28.060Z,2.77
2019-02-12T00:39:56.557Z,2.67
2019-02-12T00:42:25.045Z,3.10
2019-02-12T00:44:53.525Z,3.93
2019-02-12T00:47:22.010Z,4.53
2019-02-12T00:49:50.501Z,2.93
2019-02-12T00:52:18.984Z,3.43
2019-02-12T00:54:47.556Z,2.60
2019-02-12T00:57:16.025Z,3.30
2019-02-12T00:59:44.488Z,4.93
2019-02-12T01:02:13.045Z,3.93
2019-02-12T01:04:41.496Z,5.10
2019-02-12T01:07:09.992Z,4.23
2019-02-12T01:09:38.451Z,4.03
2019-02-12T01:12:06.908Z,3.43
2019-02-12T01:14:35.477Z,3.60
2019-02-12T01:17:04.010Z,3.67
2019-02-12T01:19:32.536Z,3.00
2019-02-12T01:22:01.042Z,4.83
2019-02-12T01:24:29.532Z,4.00
2019-02-12T01:26:58.001Z,5.17
2019-02-12T01:29:26.496Z,5.23
2019-02-12T01:31:54.977Z,2.60
2019-02-12T01:34:23.550Z,2.73
2019-02-12T01:36:52.047Z,2.73
2019-02-12T01:39:20.491Z,6.30
2019-02-12T01:41:48.952Z,3.40
2019-02-12T01:44:17.421Z,2.57
2019-02-12T01:46:45.866Z,2.53
2019-02-12T01:49:14.344Z,5.03
2019-02-12T01:51:42.812Z,3.53
2019-02-12T01:54:11.312Z,3.43
2019-02-12T01:56:39.753Z,3.17
2019-02-12T01:59:08.253Z,2.20
2019-02-12T02:01:36.721Z,4.10
2019-02-12T02:04:05.202Z,2.63
2019-02-12T02:06:33.668Z,6.30
2019-02-12T02:09:02.188Z,3.00
2019-02-12T02:11:30.681Z,2.60
2019-02-12T02:13:59.137Z,1.90
2019-02-12T02:16:27.599Z,4.03
2019-02-12T02:18:56.093Z,4.13
2019-02-12T02:21:24.556Z,2.33
2019-02-12T02:23:53.025Z,3.83
2019-02-12T02:26:21.504Z,3.77
2019-02-12T02:28:49.985Z,3.27
2019-02-12T02:31:18.493Z,3.80
2019-02-12T02:33:46.978Z,3.83
2019-02-12T02:36:15.511Z,2.93
2019-02-12T02:38:44.076Z,3.17
2019-02-12T02:41:12.553Z,3.40
2019-02-12T02:43:41.026Z,3.63
2019-02-12T02:46:09.508Z,6.43
2019-02-12T02:48:37.973Z,5.03
2019-02-12T02:51:06.511Z,2.27
2019-02-12T02:53:34.992Z,3.03
2019-02-12T02:56:03.454Z,3.30
2019-02-12T02:58:32.105Z,3.40
2019-02-12T03:01:00.595Z,3.13
2019-02-12T03:03:29.078Z,3.93
2019-02-12T03:05:57.631Z,2.80
2019-02-12T03:08:26.188Z,4.23
2019-02-12T03:10:54.661Z,2.60
2019-02-12T03:13:23.107Z,3.80
2019-02-12T03:15:51.596Z,2.77
2019-02-12T03:18:20.109Z,5.53
2019-02-12T03:20:48.566Z,3.60
2019-02-12T03:23:17.039Z,4.20
2019-02-12T03:25:45.580Z,5.37
2019-02-12T03:28:14.099Z,3.27
2019-02-12T03:30:42.557Z,5.33
2019-02-12T03:33:11.131Z,3.27
2019-02-12T03:35:39.682Z,4.87
2019-02-12T03:38:08.165Z,3.27
2019-02-12T03:40:36.676Z,4.00
2019-02-12T03:43:05.229Z,10.53
2019-02-12T03:45:33.701Z,5.17
2019-02-12T03:48:02.203Z,4.47
2019-02-12T03:50:30.779Z,5.97
2019-02-12T03:53:00.042Z,3.53
2019-02-12T03:55:28.497Z,5.83
2019-02-12T03:57:57.042Z,4.13
2019-02-12T04:00:25.605Z,4.90
2019-02-12T04:03:01.734Z,5.47
2019-02-12T04:05:30.219Z,5.47
2019-02-12T04:08:04.050Z,4.73
2019-02-12T04:10:32.553Z,3.93
2019-02-12T04:13:01.241Z,7.70
2019-02-12T04:15:29.740Z,4.83
2019-02-12T04:17:58.229Z,4.77
2019-02-12T04:20:26.762Z,5.77
2019-02-12T04:22:55.317Z,5.50
2019-02-12T04:25:23.786Z,5.40
2019-02-12T04:27:52.256Z,3.97
2019-02-12T04:30:20.829Z,4.50
2019-02-12T04:32:49.296Z,7.30
2019-02-12T04:35:17.808Z,6.60
2019-02-12T04:37:46.359Z,4.57
2019-02-12T04:40:14.823Z,5.77
2019-02-12T04:42:43.302Z,4.70
2019-02-12T04:45:12.445Z,5.10
2019-02-12T04:47:40.907Z,4.97
2019-02-12T04:50:12.313Z,6.80
2019-02-12T04:52:40.808Z,6.23
2019-02-12T04:55:11.532Z,4.67
2019-02-12T04:57:39.991Z,6.70
2019-02-12T05:00:11.648Z,7.27
2019-02-12T05:02:40.125Z,5.10
2019-02-12T05:05:10.534Z,9.93
2019-02-12T05:07:39.004Z,4.90
2019-02-12T05:10:10.553Z,5.97
2019-02-12T05:12:39.043Z,5.30
2019-02-12T05:15:09.537Z,4.57
2019-02-12T05:17:38.105Z,8.97
2019-02-12T05:20:09.669Z,6.87
2019-02-12T05:22:43.712Z,4.77
2019-02-12T05:25:08.961Z,5.20
2019-02-12T05:27:37.429Z,5.43
2019-02-12T05:30:14.890Z,5.23
2019-02-12T05:32:43.666Z,6.23
2019-02-12T05:35:12.546Z,5.83
2019-02-12T05:37:41.431Z,4.17
2019-02-12T05:40:11.268Z,4.83
2019-02-12T05:42:39.741Z,9.27
2019-02-12T05:45:13.235Z,6.20
2019-02-12T05:47:41.840Z,9.53
2019-02-12T05:50:15.308Z,11.13
2019-02-12T05:52:53.267Z,7.23
2019-02-12T05:55:14.000Z,6.23
2019-02-12T05:57:42.476Z,5.43
2019-02-12T06:00:18.426Z,5.03
2019-02-12T06:02:47.221Z,3.83
2019-02-12T06:05:26.645Z,5.77
2019-02-12T06:07:55.122Z,6.83
2019-02-12T06:10:23.614Z,6.73
2019-02-12T06:12:52.185Z,7.13
2019-02-12T06:15:20.772Z,12.37
2019-02-12T06:17:49.305Z,6.60
2019-02-12T06:20:17.773Z,6.70
2019-02-12T06:22:46.343Z,5.60
2019-02-12T06:25:14.805Z,5.50
2019-02-12T06:27:43.281Z,7.53
2019-02-12T06:30:11.842Z,5.57
2019-02-12T06:32:40.320Z,6.03
2019-02-12T06:35:09.870Z,6.30
2019-02-12T06:37:38.423Z,7.60
2019-02-12T06:40:09.997Z,11.40
2019-02-12T06:42:38.483Z,5.40
2019-02-12T06:45:10.021Z,7.67
2019-02-12T06:47:38.485Z,8.43
2019-02-12T06:50:14.480Z,8.07
2019-02-12T06:52:42.956Z,6.10
2019-02-12T06:55:11.786Z,8.37
2019-02-12T06:57:40.237Z,8.10
2019-02-12T07:00:15.486Z,8.50
2019-02-12T07:03:10.308Z,6.17
2019-02-12T07:05:56.147Z,6.90
2019-02-12T07:09:05.123Z,7.57
2019-02-12T07:11:45.252Z,7.97
2019-02-12T07:14:34.580Z,7.10
2019-02-12T07:17:15.068Z,7.53
2019-02-12T07:20:12.165Z,8.17
2019-02-12T07:23:00.578Z,7.57
2019-02-12T07:25:51.483Z,8.60
2019-02-12T07:28:29.109Z,23.00
2019-02-12T07:31:16.916Z,22.47
2019-02-12T07:33:57.221Z,19.90
2019-02-12T07:36:40.938Z,11.47
2019-02-12T07:39:18.701Z,11.20
2019-02-12T07:42:02.282Z,8.10
2019-02-12T07:44:48.817Z,7.93
2019-02-12T07:47:20.380Z,8.83
2019-02-12T07:50:06.861Z,10.57
2019-02-12T07:52:38.428Z,8.67
2019-02-12T07:55:41.609Z,7.50
2019-02-12T07:58:29.909Z,10.07
2019-02-12T08:01:22.833Z,7.77
2019-02-12T08:04:10.977Z,7.80
2019-02-12T08:06:45.501Z,6.10
2019-02-12T08:09:35.274Z,5.93
2019-02-12T08:12:12.610Z,6.87
2019-02-12T08:14:49.833Z,7.07
2019-02-12T08:17:39.240Z,8.73
2019-02-12T08:20:16.473Z,9.97
2019-02-12T08:22:59.340Z,8.03
2019-02-12T08:25:45.736Z,9.10
2019-02-12T08:28:44.365Z,8.37
2019-02-12T08:31:46.189Z,9.97
2019-02-12T08:34:32.929Z,8.63
2019-02-12T08:37:16.520Z,10.37
2019-02-12T08:39:51.116Z,10.20
2019-02-12T08:42:22.724Z,9.57
2019-02-12T08:45:00.378Z,11.87
2019-02-12T08:47:34.656Z,13.03
2019-02-12T08:50:06.244Z,12.17
2019-02-12T08:52:40.239Z,11.20
2019-02-12T08:55:20.744Z,8.57
2019-02-12T08:58:00.879Z,7.87
2019-02-12T09:00:44.194Z,9.37
2019-02-12T09:03:33.694Z,18.53
2019-02-12T09:06:35.115Z,9.73
2019-02-12T09:09:25.910Z,7.87
2019-02-12T09:12:13.786Z,14.23
2019-02-12T09:14:51.295Z,9.80
2019-02-12T09:17:34.768Z,12.00
2019-02-12T09:20:09.165Z,10.97
2019-02-12T09:22:40.780Z,8.67
2019-02-12T09:25:30.272Z,9.47
2019-02-12T09:28:19.308Z,7.60
2019-02-12T09:31:05.182Z,13.40
2019-02-12T09:33:42.692Z,10.03
2019-02-12T09:36:23.147Z,7.93
2019-02-12T09:39:13.827Z,8.33
2019-02-12T09:42:03.028Z,7.53
2019-02-12T09:44:51.320Z,10.03
2019-02-12T09:47:40.985Z,10.97
2019-02-12T09:50:29.304Z,7.57
2019-02-12T09:53:12.612Z,7.37
2019-02-12T09:56:00.841Z,6.37
2019-02-12T09:58:58.137Z,11.07
2019-02-12T10:01:50.851Z,4.67
2019-02-12T10:04:50.941Z,6.33
2019-02-12T10:07:32.425Z,8.77
2019-02-12T10:10:12.812Z,7.27
2019-02-12T10:12:47.332Z,6.47
2019-02-12T10:15:36.748Z,10.27
2019-02-12T10:18:20.317Z,5.50
2019-02-12T10:21:12.960Z,6.97
2019-02-12T10:24:19.385Z,10.33
2019-02-12T10:27:12.292Z,6.63
2019-02-12T10:29:46.678Z,9.17
2019-02-12T10:32:14.066Z,9.00
2019-02-12T10:34:42.537Z,5.10
2019-02-12T10:37:11.021Z,7.37
2019-02-12T10:39:39.484Z,5.37
2019-02-12T10:42:07.972Z,6.40
2019-02-12T10:44:36.500Z,7.97
2019-02-12T10:47:05.034Z,10.13
2019-02-12T10:49:38.462Z,5.13
2019-02-12T10:52:06.936Z,4.83
2019-02-12T10:54:35.888Z,5.23
2019-02-12T10:57:04.381Z,5.17
2019-02-12T10:59:32.829Z,12.40
2019-02-12T11:02:01.303Z,7.20
2019-02-12T11:04:29.804Z,4.27
2019-02-12T11:06:58.257Z,5.83
2019-02-12T11:09:26.788Z,6.97
2019-02-12T11:11:55.397Z,7.53
2019-02-12T11:14:23.929Z,12.03
2019-02-12T11:16:52.393Z,6.83
2019-02-12T11:19:20.856Z,4.87
2019-02-12T11:21:49.333Z,4.30
2019-02-12T11:24:17.861Z,6.80
2019-02-12T11:26:46.324Z,4.70
2019-02-12T11:29:14.896Z,3.83
2019-02-12T11:31:43.360Z,4.87
2019-02-12T11:34:11.826Z,5.40
2019-02-12T11:36:40.292Z,7.27
2019-02-12T11:39:08.757Z,4.50
2019-02-12T11:41:37.261Z,4.53
2019-02-12T11:44:05.732Z,5.80
2019-02-12T11:46:34.212Z,3.83
2019-02-12T11:49:02.704Z,4.60
2019-02-12T11:51:31.177Z,5.20
2019-02-12T11:53:59.641Z,4.13
2019-02-12T11:56:28.128Z,4.07
2019-02-12T11:58:56.669Z,2.77
2019-02-12T12:01:25.885Z,3.10
2019-02-12T12:03:54.387Z,4.27
2019-02-12T12:06:23.152Z,3.27
2019-02-12T12:08:51.591Z,6.73
2019-02-12T12:11:20.081Z,3.53
2019-02-12T12:13:48.536Z,5.23
2019-02-12T12:16:17.001Z,4.30
2019-02-12T12:18:45.572Z,3.87
2019-02-12T12:21:14.053Z,2.97
2019-02-12T12:23:42.638Z,3.13
2019-02-12T12:26:11.097Z,5.23
2019-02-12T12:28:39.582Z,3.93
2019-02-12T12:31:08.056Z,3.47
2019-02-12T12:33:36.576Z,3.33
2019-02-12T12:36:05.126Z,3.23
2019-02-12T12:38:33.600Z,2.77
2019-02-12T12:41:02.089Z,5.73
2019-02-12T12:43:30.609Z,5.50
2019-02-12T12:45:59.108Z,2.37
2019-02-12T12:48:27.620Z,3.10
2019-02-12T12:50:56.067Z,1.60
2019-02-12T12:53:24.520Z,3.70
2019-02-12T12:55:52.994Z,1.63
2019-02-12T12:58:21.431Z,4.27
2019-02-12T13:00:49.918Z,1.97
2019-02-12T13:03:18.411Z,2.73
2019-02-12T13:05:46.865Z,2.27
2019-02-12T13:08:15.365Z,2.10
2019-02-12T13:10:44.673Z,2.87
2019-02-12T13:13:13.521Z,3.17
2019-02-12T13:15:41.998Z,2.90
2019-02-12T13:18:10.513Z,1.73
2019-02-12T13:20:38.982Z,2.57
2019-02-12T13:23:07.661Z,3.53
2019-02-12T13:25:36.190Z,3.23
2019-02-12T13:28:04.744Z,2.27
2019-02-12T13:30:33.288Z,1.30
2019-02-12T13:33:01.762Z,1.30
2019-02-12T13:35:30.270Z,1.30
2019-02-12T13:37:58.758Z,1.37
2019-02-12T13:40:27.256Z,2.50
2019-02-12T13:42:55.740Z,3.27
2019-02-12T13:45:24.214Z,2.23
2019-02-12T13:47:52.689Z,4.37
2019-02-12T13:50:21.168Z,1.87
2019-02-12T13:52:49.673Z,1.73
2019-02-12T13:55:18.236Z,3.13
2019-02-12T13:57:46.717Z,3.47
2019-02-12T14:00:16.877Z,2.07
2019-02-12T14:02:45.403Z,4.87
2019-02-12T14:05:16.991Z,1.77
2019-02-12T14:07:45.524Z,4.03
2019-02-12T14:10:14.236Z,1.90
2019-02-12T14:12:42.720Z,1.57
2019-02-12T14:15:14.451Z,3.70
2019-02-12T14:17:42.948Z,2.67
2019-02-12T14:20:14.297Z,2.70
2019-02-12T14:22:42.785Z,2.10
2019-02-12T14:25:13.417Z,2.90
2019-02-12T14:27:42.045Z,4.67
2019-02-12T14:30:19.668Z,3.03
2019-02-12T14:32:48.156Z,3.43
2019-02-12T14:35:16.609Z,2.20
2019-02-12T14:37:45.099Z,3.43
2019-02-12T14:40:15.672Z,3.13
2019-02-12T14:42:44.219Z,2.67
2019-02-12T14:45:17.584Z,3.20
2019-02-12T14:47:46.119Z,2.73
2019-02-12T14:50:19.815Z,3.27
2019-02-12T14:52:48.335Z,3.40
2019-02-12T14:55:16.874Z,3.87
2019-02-12T14:57:45.447Z,6.60
2019-02-12T15:00:19.277Z,10.40
2019-02-12T15:02:47.758Z,5.27
2019-02-12T15:05:16.238Z,4.33
2019-02-12T15:07:44.814Z,2.63
2019-02-12T15:10:15.178Z,3.57
2019-02-12T15:12:43.657Z,4.37
2019-02-12T15:15:12.848Z,6.43
2019-02-12T15:17:41.332Z,6.57
2019-02-12T15:20:11.445Z,5.57
2019-02-12T15:22:40.004Z,7.87
2019-02-12T15:25:10.212Z,4.17
2019-02-12T15:27:38.741Z,3.43
2019-02-12T15:30:15.412Z,4.20
2019-02-12T15:32:43.887Z,4.23
2019-02-12T15:35:13.392Z,7.57
2019-02-12T15:37:41.863Z,4.80
2019-02-12T15:40:13.422Z,5.17
2019-02-12T15:42:41.989Z,6.43
2019-02-12T15:45:18.876Z,6.20
2019-02-12T15:47:47.444Z,6.13
2019-02-12T15:50:15.925Z,4.60
2019-02-12T15:52:44.389Z,4.50
2019-02-12T15:55:15.943Z,3.57
2019-02-12T15:57:45.949Z,3.17
2019-02-12T16:00:20.574Z,5.70
2019-02-12T16:02:49.282Z,4.37
2019-02-12T16:05:17.772Z,2.77
2019-02-12T16:07:47.343Z,3.60
2019-02-12T16:10:22.678Z,3.40
2019-02-12T16:12:51.663Z,3.67
2019-02-12T16:15:22.429Z,6.47
2019-02-12T16:17:51.194Z,2.90
2019-02-12T16:20:19.660Z,3.10
2019-02-12T16:22:48.149Z,4.10
2019-02-12T16:25:16.690Z,3.50
2019-02-12T16:27:45.237Z,4.57
2019-02-12T16:30:23.716Z,6.43
2019-02-12T16:32:52.185Z,4.97
2019-02-12T16:35:20.649Z,5.13
2019-02-12T16:37:49.160Z,5.67
2019-02-12T16:40:18.301Z,4.10
2019-02-12T16:42:46.765Z,5.63
2019-02-12T16:45:30.406Z,5.40
2019-02-12T16:48:00.165Z,5.77
2019-02-12T16:50:28.937Z,4.27
2019-02-12T16:52:57.413Z,4.03
2019-02-12T16:55:25.861Z,3.00
2019-02-12T16:57:54.305Z,3.93
2019-02-12T17:00:25.709Z,4.80
2019-02-12T17:02:54.208Z,2.60
2019-02-12T17:05:22.717Z,5.97
2019-02-12T17:07:51.233Z,4.60
2019-02-12T17:10:19.781Z,4.20
2019-02-12T17:12:48.245Z,2.47
2019-02-12T17:15:16.746Z,1.67
2019-02-12T17:17:45.232Z,2.53
2019-02-12T17:20:24.231Z,2.57
2019-02-12T17:22:52.689Z,6.50
2019-02-12T17:25:22.178Z,4.80
2019-02-12T17:27:50.660Z,3.53
2019-02-12T17:30:19.217Z,2.73
2019-02-12T17:32:47.684Z,5.67
2019-02-12T17:35:16.183Z,5.33
2019-02-12T17:37:44.673Z,6.63
2019-02-12T17:40:15.592Z,7.37
2019-02-12T17:42:44.089Z,6.43
2019-02-12T17:45:19.049Z,3.93
2019-02-12T17:47:47.548Z,3.03
2019-02-12T17:50:16.579Z,4.30
2019-02-12T17:52:45.043Z,3.20
2019-02-12T17:55:13.671Z,5.90
2019-02-12T17:57:42.153Z,6.07
2019-02-12T18:00:17.421Z,5.47
2019-02-12T18:02:46.020Z,4.73
2019-02-12T18:05:14.761Z,7.10
2019-02-12T18:07:43.412Z,6.37
2019-02-12T18:10:12.508Z,7.53
2019-02-12T18:12:41.062Z,4.00
2019-02-12T18:15:14.089Z,5.93
2019-02-12T18:17:42.552Z,3.23
2019-02-12T18:20:26.146Z,8.83
2019-02-12T18:22:48.799Z,7.67
2019-02-12T18:25:17.257Z,6.13
2019-02-12T18:27:45.710Z,4.27
2019-02-12T18:30:16.045Z,6.17
2019-02-12T18:32:44.631Z,5.30
2019-02-12T18:35:13.221Z,4.17
2019-02-12T18:37:41.716Z,6.30
2019-02-12T18:40:19.589Z,11.87
2019-02-12T18:42:48.157Z,8.93
2019-02-12T18:45:19.033Z,9.13
2019-02-12T18:47:47.505Z,11.53
2019-02-12T18:50:16.111Z,5.77
2019-02-12T18:52:44.571Z,6.90
2019-02-12T18:55:15.169Z,4.20
2019-02-12T18:57:43.745Z,7.73
2019-02-12T19:00:15.068Z,4.43
2019-02-12T19:02:43.532Z,4.80
2019-02-12T19:05:12.177Z,5.20
2019-02-12T19:07:40.646Z,4.60
2019-02-12T19:10:14.311Z,9.50
2019-02-12T19:12:43.170Z,6.10
2019-02-12T19:15:14.182Z,6.87
2019-02-12T19:17:44.689Z,9.40
2019-02-12T19:20:14.561Z,7.37
2019-02-12T19:22:43.028Z,6.07
2019-02-12T19:25:11.572Z,8.03
2019-02-12T19:27:40.032Z,6.90
2019-02-12T19:30:11.579Z,5.17
2019-02-12T19:32:40.085Z,6.03
2019-02-12T19:35:10.708Z,7.90
2019-02-12T19:37:39.174Z,5.40
2019-02-12T19:40:12.934Z,5.10
2019-02-12T19:42:41.409Z,3.93
2019-02-12T19:45:17.701Z,6.90
2019-02-12T19:47:46.236Z,6.57
2019-02-12T19:50:14.745Z,4.27
2019-02-12T19:52:43.256Z,4.03
2019-02-12T19:55:12.218Z,4.73
2019-02-12T19:57:40.763Z,5.40
2019-02-12T20:00:22.341Z,4.57
2019-02-12T20:02:51.501Z,4.80
2019-02-12T20:05:20.215Z,4.57
2019-02-12T20:07:50.502Z,4.17
2019-02-12T20:10:18.925Z,6.53
2019-02-12T20:12:47.421Z,5.87
2019-02-12T20:15:21.093Z,5.40
2019-02-12T20:17:49.585Z,4.63
2019-02-12T20:20:18.070Z,7.60
2019-02-12T20:22:46.544Z,4.97
2019-02-12T20:25:15.020Z,4.33
2019-02-12T20:27:43.513Z,4.00
2019-02-12T20:30:17.013Z,3.27
2019-02-12T20:32:45.573Z,5.67
2019-02-12T20:35:15.996Z,5.90
2019-02-12T20:37:44.462Z,4.77
2019-02-12T20:40:14.576Z,3.70
2019-02-12T20:42:43.104Z,5.33
2019-02-12T20:45:20.624Z,4.13
2019-02-12T20:47:49.168Z,4.13
2019-02-12T20:50:19.472Z,4.07
2019-02-12T20:52:48.007Z,3.93
2019-02-12T20:55:16.546Z,2.97
2019-02-12T20:57:45.082Z,3.47
2019-02-12T21:00:19.451Z,3.53
2019-02-12T21:02:47.945Z,3.10
2019-02-12T21:05:16.978Z,3.43
2019-02-12T21:07:45.577Z,4.30
2019-02-12T21:10:16.576Z,4.07
2019-02-12T21:12:45.166Z,3.00
2019-02-12T21:15:16.424Z,5.93
2019-02-12T21:17:44.931Z,2.40
2019-02-12T21:20:13.630Z,2.47
2019-02-12T21:22:42.111Z,6.50
2019-02-12T21:25:12.146Z,3.53
2019-02-12T21:27:40.614Z,3.43
2019-02-12T21:30:20.832Z,4.43
2019-02-12T21:32:49.392Z,8.37
2019-02-12T21:35:17.857Z,4.03
2019-02-12T21:37:46.344Z,4.53
2019-02-12T21:40:20.124Z,3.83
2019-02-12T21:42:48.756Z,4.17
2019-02-12T21:45:17.389Z,3.30
2019-02-12T21:47:45.840Z,5.63
2019-02-12T21:50:14.301Z,4.37
2019-02-12T21:52:42.819Z,5.03
2019-02-12T21:55:16.481Z,4.10
2019-02-12T21:57:44.956Z,3.23
2019-02-12T22:00:16.071Z,5.57
2019-02-12T22:02:44.565Z,4.67
2019-02-12T22:05:17.134Z,4.37
2019-02-12T22:07:45.726Z,3.57
2019-02-12T22:10:25.596Z,3.07
2019-02-12T22:12:54.069Z,3.23
2019-02-12T22:15:22.532Z,4.97
2019-02-12T22:17:51.013Z,2.97
2019-02-12T22:20:21.210Z,3.87
2019-02-12T22:22:49.783Z,2.80
2019-02-12T22:25:18.289Z,6.93
2019-02-12T22:27:46.830Z,3.17
2019-02-12T22:30:24.131Z,4.27
2019-02-12T22:32:52.601Z,2.97
2019-02-12T22:35:21.112Z,4.40
2019-02-12T22:37:49.577Z,2.83
2019-02-12T22:40:18.679Z,3.47
2019-02-12T22:42:47.281Z,4.43
2019-02-12T22:45:17.940Z,4.97
2019-02-12T22:47:46.477Z,2.30
2019-02-12T22:50:15.826Z,2.00
2019-02-12T22:52:44.392Z,1.70
2019-02-12T22:55:12.970Z,1.30
2019-02-12T22:57:48.809Z,4.77
2019-02-12T23:00:34.204Z,1.70
2019-02-12T23:03:02.662Z,3.00
2019-02-12T23:05:31.146Z,1.40
2019-02-12T23:07:59.613Z,3.43
2019-02-12T23:10:28.124Z,1.40
2019-02-12T23:12:56.597Z,2.33
2019-02-12T23:15:25.084Z,2.40
2019-02-12T23:17:53.537Z,2.30
2019-02-12T23:20:22.033Z,1.73
2019-02-12T23:22:50.549Z,1.30
2019-02-12T23:25:19.017Z,2.33
2019-02-12T23:27:47.596Z,1.73
2019-02-12T23:30:31.126Z,1.30
2019-02-12T23:32:59.613Z,1.77
2019-02-12T23:35:28.077Z,6.63
2019-02-12T23:37:56.585Z,2.00
2019-02-12T23:40:25.024Z,6.17
2019-02-12T23:42:53.517Z,2.80
2019-02-12T23:45:21.976Z,2.43
2019-02-12T23:47:50.440Z,2.33
2019-02-12T23:50:18.966Z,1.97
2019-02-12T23:52:47.515Z,3.07
2019-02-12T23:55:16.001Z,2.20
2019-02-12T23:57:44.492Z,2.23
